Pagrindinis puslapis
METAR-TAF:

METAR-TAF

Oro uostai :

Talara, Peru

platuma: 04-34S, ilguma: 081-15W, Aukštis: 85 m

Dabartinis oras

Ataskaita buvo paskelbta 4 valandos ir 43 minutes, ne 19:00 UTC
Vėjas 10 kt iš Pietvakarių
Temperatūra 25°C
Drėgmė 65%
Slėgis 1013 hPa
Matomumas 10 km arba daugiau
nėra debesų žemiau 1500 m ir nėra kamuolinių lietaus debesų

METAR: SPYL 051900Z 23010KT CAVOK 25/18 Q1013 RMK BIRD HAZARD RWY 17/35 PP000

Laikas: 18:43 (23:43 UTC)

Prognozė

Ataskaita buvo paskelbta 7 valandos ir 13 minutes, ne 16:30 UTC
Prognozė galioja nuo 05 metu 18 UTC su 06 metu 18 UTC
Vėjas 12 kt iš Pietų
Matomumas 10 km arba daugiau
nėra debesų žemiau 1500 m ir nėra kamuolinių lietaus debesų

TAF: SPYL 051630Z 0518/0618 19012KT CAVOK TX27/0518Z TN20/0611Z

Orai ataskaitas ir orų prognozės (METAR, TAF).

turimą stotys yra geltonos ir raudonos taškus žemėlapyje.

Perkelti pele per norėdami pamatyti stoties vardą.

Tada spustelėkite, norėdami matyti oro stebėjimo ir prognozės.

Norėdami pakeisti žemėlapį: spustelėkite ant žalios mygtukų su juodo kryžiaus žemyn,; žalią mygtuką su brūkšneliu, jei norite nutolinti; arba žalių rodyklių gretimoms žemėlapius.


METAR-TAF: